TW-0027 weather

Taipei Trade Center Helipad
Taipei, Taipei (municipality), Taiwan

Public forecast

Using degrees Celsius for public forecast. Weather courtesy of forecast.io.

Closest aviation weather report (METAR) to Taipei Trade Center Helipad

Closest report is Taipei Songshan Airport, 2.2 nm (4.1 km) NNW. Retrieved 2020/03/30 10:30 UTC (25 minutes ago):

RCSS 301030Z 11009KT 8000 VCSH FEW008 BKN018 BKN040 19/17 Q1013 NOSIG RMK A2994

Closest aviation forecast (TAF) to Taipei Trade Center Helipad

Closest forecast is Taipei Songshan Airport, 2.2 nm (4.1 km) NNW. Retrieved 2020/03/30 06:00 UTC (5 hours ago):

TAF RCSS 300500Z 3006/3106 33005KT 9999 FEW015 BKN032 BKN060 BECMG 3008/3010 09010KT TEMPO 3010/3014 5000 RA FEW012 BKN020 BKN050 TEMPO 3020/3024 5000 RA FEW012 BKN020 BKN050